createdAt,value
2018-12-06T00:00:44.546Z,12.65
2018-12-06T00:01:48.721Z,10.93
2018-12-06T00:02:52.719Z,10.90
2018-12-06T00:03:56.780Z,10.23
2018-12-06T00:05:00.833Z,10.72
2018-12-06T00:06:04.988Z,12.55
2018-12-06T00:07:09.002Z,11.40
2018-12-06T00:08:16.230Z,11.22
2018-12-06T00:09:20.198Z,11.28
2018-12-06T00:10:24.202Z,11.22
2018-12-06T00:11:28.237Z,11.88
2018-12-06T00:12:32.314Z,11.28
2018-12-06T00:13:36.277Z,13.30
2018-12-06T00:14:40.306Z,11.95
2018-12-06T00:15:44.286Z,11.20
2018-12-06T00:16:55.783Z,12.03
2018-12-06T00:17:59.792Z,10.40
2018-12-06T00:19:08.614Z,11.93
2018-12-06T00:20:12.674Z,11.28
2018-12-06T00:21:16.748Z,12.10
2018-12-06T00:22:20.902Z,10.80
2018-12-06T00:23:25.277Z,10.95
2018-12-06T00:24:29.404Z,12.82
2018-12-06T00:25:33.498Z,11.35
2018-12-06T00:26:37.630Z,11.97
2018-12-06T00:27:41.688Z,12.15
2018-12-06T00:28:45.730Z,10.63
2018-12-06T00:30:01.214Z,10.50
2018-12-06T00:31:05.221Z,11.40
2018-12-06T00:32:09.251Z,11.65
2018-12-06T00:33:13.307Z,10.75
2018-12-06T00:34:17.495Z,11.40
2018-12-06T00:35:21.777Z,11.45
2018-12-06T00:36:25.799Z,10.72
2018-12-06T00:37:29.967Z,11.80
2018-12-06T00:38:34.126Z,12.25
2018-12-06T00:39:38.159Z,12.28
2018-12-06T00:40:42.800Z,10.90
2018-12-06T00:41:46.843Z,11.20
2018-12-06T00:42:50.903Z,12.10
2018-12-06T00:43:55.036Z,11.25
2018-12-06T00:45:01.866Z,13.50
2018-12-06T00:46:05.963Z,11.38
2018-12-06T00:47:09.987Z,11.90
2018-12-06T00:48:14.095Z,11.53
2018-12-06T00:49:18.215Z,11.50
2018-12-06T00:50:22.317Z,11.20
2018-12-06T00:51:26.371Z,11.97
2018-12-06T00:52:30.394Z,11.65
2018-12-06T00:53:34.539Z,13.72
2018-12-06T00:54:38.676Z,12.03
2018-12-06T00:55:42.752Z,12.30
2018-12-06T00:56:46.860Z,12.15
2018-12-06T00:57:50.911Z,12.03
2018-12-06T00:58:54.957Z,12.70
2018-12-06T00:59:58.994Z,13.50
2018-12-06T01:01:03.087Z,13.22
2018-12-06T01:02:09.086Z,13.35
2018-12-06T01:03:13.207Z,11.65
2018-12-06T01:04:17.327Z,12.00
2018-12-06T01:05:21.453Z,11.78
2018-12-06T01:06:25.689Z,11.95
2018-12-06T01:07:29.834Z,12.30
2018-12-06T01:08:33.970Z,13.22
2018-12-06T01:09:38.048Z,14.13
2018-12-06T01:10:42.199Z,12.95
2018-12-06T01:11:46.236Z,14.63
2018-12-06T01:12:50.354Z,13.35
2018-12-06T01:13:54.393Z,11.93
2018-12-06T01:14:58.446Z,12.58
2018-12-06T01:16:02.697Z,12.35
2018-12-06T01:17:06.855Z,12.45
2018-12-06T01:18:11.000Z,13.53
2018-12-06T01:19:15.020Z,12.18
2018-12-06T01:20:19.068Z,12.15
2018-12-06T01:21:23.243Z,13.22
2018-12-06T01:22:27.279Z,13.83
2018-12-06T01:23:31.551Z,13.60
2018-12-06T01:24:35.695Z,12.45
2018-12-06T01:25:39.817Z,12.70
2018-12-06T01:26:43.842Z,12.63
2018-12-06T01:27:47.986Z,11.70
2018-12-06T01:28:52.104Z,13.32
2018-12-06T01:29:56.217Z,12.80
2018-12-06T01:31:00.399Z,12.90
2018-12-06T01:32:04.496Z,13.83
2018-12-06T01:33:08.698Z,12.65
2018-12-06T01:34:12.834Z,12.80
2018-12-06T01:35:16.918Z,13.58
2018-12-06T01:36:21.000Z,13.43
2018-12-06T01:37:25.071Z,14.38
2018-12-06T01:38:29.103Z,12.58
2018-12-06T01:39:33.417Z,13.03
2018-12-06T01:40:37.464Z,13.22
2018-12-06T01:41:41.625Z,12.23
2018-12-06T01:42:45.690Z,13.00
2018-12-06T01:43:49.879Z,12.78
2018-12-06T01:44:53.906Z,11.73
2018-12-06T01:45:57.963Z,13.25
2018-12-06T01:47:02.040Z,13.08
2018-12-06T01:48:06.410Z,11.93
2018-12-06T01:49:10.451Z,12.80
2018-12-06T01:50:14.701Z,11.57
2018-12-06T01:51:18.906Z,13.20
2018-12-06T01:52:22.943Z,13.58
2018-12-06T01:53:27.022Z,12.30
2018-12-06T01:54:31.051Z,13.20
2018-12-06T01:55:35.212Z,12.23
2018-12-06T01:56:39.295Z,12.40
2018-12-06T01:57:43.314Z,12.75
2018-12-06T01:58:47.419Z,12.68
2018-12-06T01:59:51.592Z,12.93
2018-12-06T02:00:55.723Z,12.80
2018-12-06T02:01:59.853Z,12.75
2018-12-06T02:03:03.985Z,12.53
2018-12-06T02:04:08.149Z,13.10
2018-12-06T02:05:12.241Z,12.65
2018-12-06T02:06:16.265Z,12.15
2018-12-06T02:07:20.397Z,11.40
2018-12-06T02:08:24.405Z,12.80
2018-12-06T02:09:29.974Z,12.43
2018-12-06T02:10:34.028Z,14.40
2018-12-06T02:11:39.723Z,13.10
2018-12-06T02:12:43.727Z,12.53
2018-12-06T02:13:47.742Z,12.60
2018-12-06T02:14:51.749Z,12.00
2018-12-06T02:15:55.768Z,13.53
2018-12-06T02:16:59.813Z,12.43
2018-12-06T02:18:04.038Z,12.15
2018-12-06T02:19:08.371Z,12.23
2018-12-06T02:20:12.379Z,13.65
2018-12-06T02:21:16.378Z,13.93
2018-12-06T02:22:20.443Z,12.55
2018-12-06T02:23:24.496Z,14.15
2018-12-06T02:24:28.776Z,13.45
2018-12-06T02:25:32.791Z,12.35
2018-12-06T02:26:36.869Z,13.13
2018-12-06T02:27:40.985Z,13.80
2018-12-06T02:28:45.121Z,15.18
2018-12-06T02:29:54.275Z,15.23
2018-12-06T02:30:58.438Z,13.58
2018-12-06T02:32:02.483Z,12.33
2018-12-06T02:33:06.729Z,13.32
2018-12-06T02:34:11.273Z,13.65
2018-12-06T02:35:15.278Z,13.72
2018-12-06T02:36:19.598Z,14.07
2018-12-06T02:37:23.738Z,13.60
2018-12-06T02:38:27.803Z,15.40
2018-12-06T02:39:31.794Z,13.53
2018-12-06T02:40:36.030Z,14.23
2018-12-06T02:41:40.185Z,14.30
2018-12-06T02:42:44.200Z,14.87
2018-12-06T02:43:48.201Z,14.25
2018-12-06T02:44:52.186Z,13.28
2018-12-06T02:45:56.278Z,15.45
2018-12-06T02:47:00.358Z,14.30
2018-12-06T02:48:04.467Z,14.13
2018-12-06T02:49:08.615Z,13.83
2018-12-06T02:50:12.751Z,13.88
2018-12-06T02:51:16.889Z,14.93
2018-12-06T02:52:21.114Z,13.95
2018-12-06T02:53:25.324Z,14.18
2018-12-06T02:54:29.411Z,14.70
2018-12-06T02:55:33.407Z,15.55
2018-12-06T02:56:37.429Z,16.10
2018-12-06T02:57:41.535Z,14.28
2018-12-06T02:58:45.537Z,16.77
2018-12-06T02:59:49.617Z,14.40
2018-12-06T03:00:53.593Z,17.00
2018-12-06T03:01:57.721Z,14.50
2018-12-06T03:03:01.753Z,14.80
2018-12-06T03:04:05.848Z,14.30
2018-12-06T03:05:09.958Z,15.93
2018-12-06T03:06:13.941Z,15.32
2018-12-06T03:07:17.967Z,15.23
2018-12-06T03:08:21.958Z,15.18
2018-12-06T03:09:26.053Z,15.58
2018-12-06T03:10:30.133Z,14.70
2018-12-06T03:11:34.239Z,15.35
2018-12-06T03:12:38.407Z,15.90
2018-12-06T03:13:42.537Z,15.03
2018-12-06T03:14:46.623Z,16.40
2018-12-06T03:15:50.628Z,15.83
2018-12-06T03:16:54.798Z,14.58
2018-12-06T03:17:58.933Z,15.35
2018-12-06T03:19:02.976Z,16.15
2018-12-06T03:20:07.403Z,14.68
2018-12-06T03:21:11.577Z,15.08
2018-12-06T03:22:15.581Z,15.53
2018-12-06T03:23:19.601Z,15.50
2018-12-06T03:24:23.676Z,14.45
2018-12-06T03:25:27.999Z,16.00
2018-12-06T03:26:32.090Z,14.90
2018-12-06T03:27:36.209Z,14.85
2018-12-06T03:28:40.304Z,14.23
2018-12-06T03:29:44.381Z,15.48
2018-12-06T03:30:48.382Z,16.42
2018-12-06T03:31:52.490Z,16.25
2018-12-06T03:32:56.617Z,15.65
2018-12-06T03:34:00.748Z,15.20
2018-12-06T03:35:05.224Z,13.85
2018-12-06T03:36:09.396Z,14.68
2018-12-06T03:37:13.381Z,15.35
2018-12-06T03:38:17.504Z,15.88
2018-12-06T03:39:21.633Z,13.80
2018-12-06T03:40:25.688Z,15.70
2018-12-06T03:41:29.723Z,13.88
2018-12-06T03:42:33.779Z,15.23
2018-12-06T03:43:37.881Z,16.20
2018-12-06T03:44:42.003Z,16.48
2018-12-06T03:45:45.995Z,14.55
2018-12-06T03:46:50.145Z,14.70
2018-12-06T03:47:54.142Z,15.10
2018-12-06T03:48:58.180Z,14.78
2018-12-06T03:50:02.226Z,15.28
2018-12-06T03:51:06.305Z,16.17
2018-12-06T03:52:10.296Z,15.70
2018-12-06T03:53:14.308Z,15.75
2018-12-06T03:54:18.364Z,14.83
2018-12-06T03:55:22.530Z,14.75
2018-12-06T03:56:26.623Z,14.78
2018-12-06T03:57:30.693Z,15.58
2018-12-06T03:58:34.713Z,14.63
2018-12-06T03:59:38.767Z,14.78
2018-12-06T04:00:42.912Z,16.20
2018-12-06T04:01:47.484Z,15.25
2018-12-06T04:02:51.546Z,14.93
2018-12-06T04:03:55.648Z,14.07
2018-12-06T04:04:59.700Z,14.90
2018-12-06T04:06:03.865Z,15.35
2018-12-06T04:07:07.953Z,14.18
2018-12-06T04:08:12.197Z,14.00
2018-12-06T04:09:16.252Z,14.10
2018-12-06T04:10:20.297Z,15.10
2018-12-06T04:11:24.361Z,13.60
2018-12-06T04:12:28.566Z,14.40
2018-12-06T04:13:32.609Z,14.60
2018-12-06T04:14:36.775Z,14.07
2018-12-06T04:15:40.924Z,14.03
2018-12-06T04:16:45.397Z,14.23
2018-12-06T04:17:49.433Z,13.10
2018-12-06T04:18:53.922Z,14.30
2018-12-06T04:19:57.905Z,14.15
2018-12-06T04:21:02.131Z,14.05
2018-12-06T04:22:06.298Z,14.80
2018-12-06T04:23:10.472Z,14.18
2018-12-06T04:24:14.452Z,13.75
2018-12-06T04:25:18.569Z,13.88
2018-12-06T04:26:22.766Z,13.38
2018-12-06T04:27:26.830Z,14.07
2018-12-06T04:28:30.878Z,14.28
2018-12-06T04:29:34.893Z,13.30
2018-12-06T04:30:38.887Z,13.48
2018-12-06T04:31:42.869Z,13.93
2018-12-06T04:32:46.886Z,12.95
2018-12-06T04:33:50.979Z,13.78
2018-12-06T04:34:55.012Z,12.75
2018-12-06T04:35:59.255Z,14.07
2018-12-06T04:37:03.266Z,14.20
2018-12-06T04:38:07.323Z,13.05
2018-12-06T04:39:11.362Z,14.55
2018-12-06T04:40:15.526Z,13.85
2018-12-06T04:41:19.525Z,13.38
2018-12-06T04:42:23.642Z,14.70
2018-12-06T04:43:27.632Z,14.13
2018-12-06T04:44:31.646Z,13.72
2018-12-06T04:45:35.863Z,13.08
2018-12-06T04:46:39.916Z,13.18
2018-12-06T04:47:43.963Z,13.78
2018-12-06T04:48:47.947Z,13.78
2018-12-06T04:49:52.031Z,13.15
2018-12-06T04:50:56.055Z,13.60
2018-12-06T04:52:00.047Z,16.05
2018-12-06T04:53:04.182Z,13.38
2018-12-06T04:55:18.515Z,13.85
2018-12-06T04:56:22.618Z,13.60
2018-12-06T04:57:26.687Z,14.78
2018-12-06T04:58:30.743Z,12.50
2018-12-06T04:59:41.467Z,13.25
2018-12-06T05:00:45.519Z,12.80
2018-12-06T05:01:49.612Z,13.70
2018-12-06T05:02:53.717Z,13.40
2018-12-06T05:03:57.864Z,13.38
2018-12-06T05:05:01.951Z,14.35
2018-12-06T05:06:06.132Z,13.55
2018-12-06T05:07:10.178Z,14.50
2018-12-06T05:08:14.341Z,14.63
2018-12-06T05:09:18.408Z,13.68
2018-12-06T05:10:22.476Z,13.38
2018-12-06T05:11:26.481Z,13.18
2018-12-06T05:12:30.479Z,13.45
2018-12-06T05:13:34.446Z,13.50
2018-12-06T05:14:38.983Z,14.93
2018-12-06T05:15:42.978Z,13.93
2018-12-06T05:16:47.003Z,14.85
2018-12-06T05:17:51.002Z,12.82
2018-12-06T05:18:55.069Z,17.60
2018-12-06T05:19:59.199Z,15.40
2018-12-06T05:21:03.272Z,13.25
2018-12-06T05:22:07.443Z,15.53
2018-12-06T05:23:11.437Z,17.67
2018-12-06T05:24:15.462Z,13.45
2018-12-06T05:25:19.450Z,13.65
2018-12-06T05:26:23.668Z,12.35
2018-12-06T05:27:27.806Z,14.05
2018-12-06T05:28:31.878Z,12.78
2018-12-06T05:29:35.922Z,13.60
2018-12-06T05:30:39.930Z,12.65
2018-12-06T05:31:44.064Z,12.45
2018-12-06T05:32:48.057Z,13.93
2018-12-06T05:33:52.262Z,12.82
2018-12-06T05:34:56.374Z,13.80
2018-12-06T05:36:00.431Z,14.60
2018-12-06T05:37:04.531Z,12.98
2018-12-06T05:38:08.715Z,14.33
2018-12-06T05:39:12.802Z,14.95
2018-12-06T05:40:16.917Z,12.82
2018-12-06T05:41:20.943Z,13.80
2018-12-06T05:42:25.012Z,13.22
2018-12-06T05:43:29.046Z,14.40
2018-12-06T05:44:33.246Z,14.25
2018-12-06T05:45:37.246Z,14.00
2018-12-06T05:46:41.439Z,13.28
2018-12-06T05:47:45.620Z,13.35
2018-12-06T05:48:49.730Z,13.80
2018-12-06T05:49:53.787Z,13.78
2018-12-06T05:50:58.111Z,14.47
2018-12-06T05:52:02.216Z,14.78
2018-12-06T05:53:06.546Z,14.80
2018-12-06T05:54:10.634Z,14.65
2018-12-06T05:55:14.628Z,15.15
2018-12-06T05:56:18.798Z,15.45
2018-12-06T05:57:22.796Z,14.10
2018-12-06T05:58:26.867Z,13.98
2018-12-06T05:59:30.929Z,14.43
2018-12-06T06:00:35.159Z,15.58
2018-12-06T06:01:39.231Z,15.35
2018-12-06T06:02:43.287Z,14.05
2018-12-06T06:03:47.382Z,12.88
2018-12-06T06:04:51.469Z,12.80
2018-12-06T06:05:55.666Z,14.68
2018-12-06T06:07:01.889Z,14.28
2018-12-06T06:08:06.004Z,13.62
2018-12-06T06:09:09.975Z,13.68
2018-12-06T06:10:13.967Z,13.68
2018-12-06T06:11:18.106Z,14.60
2018-12-06T06:12:22.224Z,12.75
2018-12-06T06:13:26.258Z,15.45
2018-12-06T06:14:30.288Z,14.28
2018-12-06T06:15:34.479Z,15.58
2018-12-06T06:16:38.547Z,15.32
2018-12-06T06:17:42.613Z,16.23
2018-12-06T06:18:46.647Z,13.45
2018-12-06T06:19:50.630Z,13.22
2018-12-06T06:20:54.705Z,13.70
2018-12-06T06:21:58.897Z,14.10
2018-12-06T06:23:02.968Z,13.48
2018-12-06T06:24:07.302Z,14.75
2018-12-06T06:25:11.404Z,15.00
2018-12-06T06:26:15.723Z,14.80
2018-12-06T06:27:20.197Z,14.40
2018-12-06T06:28:24.304Z,14.47
2018-12-06T06:29:28.430Z,13.50
2018-12-06T06:30:32.501Z,14.25
2018-12-06T06:31:36.580Z,14.68
2018-12-06T06:32:40.863Z,13.32
2018-12-06T06:33:44.854Z,15.65
2018-12-06T06:34:49.034Z,14.58
2018-12-06T06:35:53.218Z,14.90
2018-12-06T06:36:57.247Z,14.60
2018-12-06T06:38:01.327Z,13.75
2018-12-06T06:39:07.274Z,14.63
2018-12-06T06:40:11.442Z,15.38
2018-12-06T06:41:15.496Z,14.90
2018-12-06T06:42:19.693Z,14.35
2018-12-06T06:43:23.821Z,15.60
2018-12-06T06:44:28.011Z,14.47
2018-12-06T06:45:32.045Z,13.55
2018-12-06T06:46:36.117Z,13.83
2018-12-06T06:47:40.251Z,14.23
2018-12-06T06:48:44.309Z,15.23
2018-12-06T06:49:48.481Z,14.78
2018-12-06T06:50:52.563Z,16.27
2018-12-06T06:51:56.834Z,14.40
2018-12-06T06:53:00.986Z,15.85
2018-12-06T06:54:05.074Z,14.90
2018-12-06T06:55:09.288Z,15.35
2018-12-06T06:56:13.379Z,13.43
2018-12-06T06:57:17.432Z,16.90
2018-12-06T06:58:21.596Z,19.65
2018-12-06T06:59:26.164Z,21.65
2018-12-06T07:00:30.716Z,17.37
2018-12-06T07:01:34.753Z,15.83
2018-12-06T07:02:38.853Z,20.30
2018-12-06T07:03:42.924Z,17.17
2018-12-06T07:04:46.928Z,15.38
2018-12-06T07:05:51.146Z,14.35
2018-12-06T07:06:55.271Z,16.15
2018-12-06T07:07:59.451Z,16.52
2018-12-06T07:09:05.784Z,16.12
2018-12-06T07:10:10.092Z,15.28
2018-12-06T07:11:14.185Z,14.87
2018-12-06T07:12:18.337Z,16.12
2018-12-06T07:13:22.359Z,16.23
2018-12-06T07:14:26.664Z,13.30
2018-12-06T07:15:31.051Z,14.00
2018-12-06T07:16:35.351Z,14.20
2018-12-06T07:17:39.439Z,14.10
2018-12-06T07:18:43.467Z,14.83
2018-12-06T07:19:47.577Z,16.00
2018-12-06T07:20:51.725Z,15.68
2018-12-06T07:21:55.950Z,15.25
2018-12-06T07:23:01.005Z,15.90
2018-12-06T07:24:05.358Z,13.50
2018-12-06T07:25:10.091Z,13.50
2018-12-06T07:26:14.210Z,14.45
2018-12-06T07:27:18.288Z,13.93
2018-12-06T07:28:23.326Z,13.65
2018-12-06T07:29:27.443Z,14.35
2018-12-06T07:30:31.616Z,14.75
2018-12-06T07:31:35.787Z,13.08
2018-12-06T07:32:39.984Z,12.82
2018-12-06T07:33:44.204Z,12.45
2018-12-06T07:34:48.367Z,13.00
2018-12-06T07:35:52.460Z,13.80
2018-12-06T07:36:56.663Z,14.25
2018-12-06T07:38:00.832Z,14.43
2018-12-06T07:39:07.747Z,13.45
2018-12-06T07:40:11.947Z,14.58
2018-12-06T07:41:16.106Z,12.23
2018-12-06T07:42:20.198Z,14.07
2018-12-06T07:43:24.239Z,13.80
2018-12-06T07:44:28.291Z,14.20
2018-12-06T07:45:32.443Z,15.10
2018-12-06T07:46:36.570Z,13.88
2018-12-06T07:47:40.655Z,13.98
2018-12-06T07:48:44.704Z,15.78
2018-12-06T07:49:48.753Z,14.90
2018-12-06T07:50:52.773Z,14.10
2018-12-06T07:51:56.989Z,14.20
2018-12-06T07:53:01.282Z,13.60
2018-12-06T07:54:05.463Z,14.47
2018-12-06T07:55:09.679Z,14.55
2018-12-06T07:56:13.752Z,13.80
2018-12-06T07:57:17.998Z,13.13
2018-12-06T07:58:22.187Z,14.30
2018-12-06T07:59:26.896Z,15.58
2018-12-06T08:00:31.010Z,13.53
2018-12-06T08:01:35.118Z,14.55
2018-12-06T08:02:39.312Z,14.95
2018-12-06T08:03:43.502Z,14.15
2018-12-06T08:04:47.531Z,14.35
2018-12-06T08:05:51.698Z,14.15
2018-12-06T08:06:55.832Z,12.98
2018-12-06T08:07:59.922Z,15.60
2018-12-06T08:09:07.772Z,14.43
2018-12-06T08:10:12.939Z,13.50
2018-12-06T08:11:17.146Z,15.58
2018-12-06T08:12:21.205Z,13.83
2018-12-06T08:13:25.614Z,13.15
2018-12-06T08:14:29.743Z,13.35
2018-12-06T08:15:33.767Z,13.68
2018-12-06T08:16:37.801Z,13.53
2018-12-06T08:17:42.025Z,14.35
2018-12-06T08:18:46.115Z,13.88
2018-12-06T08:19:50.255Z,14.23
2018-12-06T08:20:54.406Z,13.40
2018-12-06T08:21:58.866Z,14.83
2018-12-06T08:23:02.951Z,14.98
2018-12-06T08:24:06.994Z,13.90
2018-12-06T08:25:11.055Z,15.20
2018-12-06T08:26:15.238Z,14.60
2018-12-06T08:27:19.330Z,14.07
2018-12-06T08:28:23.606Z,14.70
2018-12-06T08:29:27.650Z,15.23
2018-12-06T08:30:31.744Z,13.90
2018-12-06T08:31:35.853Z,13.83
2018-12-06T08:32:39.919Z,13.45
2018-12-06T08:33:44.050Z,15.10
2018-12-06T08:34:48.261Z,14.85
2018-12-06T08:35:52.306Z,13.85
2018-12-06T08:36:56.358Z,14.53
2018-12-06T08:38:00.448Z,15.93
2018-12-06T08:39:06.455Z,14.90
2018-12-06T08:40:10.641Z,14.30
2018-12-06T08:41:14.747Z,14.50
2018-12-06T08:42:18.945Z,14.65
2018-12-06T08:43:22.965Z,15.03
2018-12-06T08:44:27.061Z,15.35
2018-12-06T08:45:31.331Z,15.48
2018-12-06T08:46:35.462Z,16.02
2018-12-06T08:47:39.537Z,15.98
2018-12-06T08:48:43.620Z,16.25
2018-12-06T08:49:47.780Z,18.23
2018-12-06T08:50:51.899Z,18.57
2018-12-06T08:51:56.618Z,17.80
2018-12-06T08:53:00.670Z,16.65
2018-12-06T08:54:04.747Z,17.62
2018-12-06T08:55:08.823Z,16.77
2018-12-06T08:56:12.882Z,16.02
2018-12-06T08:57:17.162Z,16.07
2018-12-06T08:58:21.275Z,16.67
2018-12-06T08:59:25.383Z,16.75
2018-12-06T09:00:29.538Z,16.90
2018-12-06T09:01:33.700Z,16.32
2018-12-06T09:02:37.776Z,17.77
2018-12-06T09:03:41.921Z,15.83
2018-12-06T09:04:46.040Z,16.45
2018-12-06T09:05:50.211Z,16.12
2018-12-06T09:06:54.332Z,16.00
2018-12-06T09:07:58.567Z,16.10
2018-12-06T09:09:03.699Z,15.15
2018-12-06T09:10:08.672Z,16.67
2018-12-06T09:11:12.819Z,17.30
2018-12-06T09:12:16.939Z,18.02
2018-12-06T09:13:21.496Z,16.70
2018-12-06T09:14:25.759Z,18.50
2018-12-06T09:15:29.752Z,17.42
2018-12-06T09:16:34.000Z,16.77
2018-12-06T09:17:38.092Z,17.90
2018-12-06T09:18:42.139Z,17.80
2018-12-06T09:19:46.239Z,18.82
2018-12-06T09:20:50.259Z,17.10
2018-12-06T09:21:54.371Z,17.10
2018-12-06T09:22:58.462Z,18.45
2018-12-06T09:24:02.556Z,18.90
2018-12-06T09:25:06.858Z,17.90
2018-12-06T09:26:10.918Z,18.48
2018-12-06T09:27:14.965Z,18.40
2018-12-06T09:28:19.011Z,18.07
2018-12-06T09:29:23.189Z,18.95
2018-12-06T09:30:27.315Z,18.65
2018-12-06T09:31:31.370Z,17.15
2018-12-06T09:32:35.398Z,19.00
2018-12-06T09:33:50.894Z,18.48
2018-12-06T09:34:55.017Z,18.27
2018-12-06T09:35:59.015Z,18.85
2018-12-06T09:37:03.171Z,19.15
2018-12-06T09:38:07.325Z,19.00
2018-12-06T09:39:11.711Z,18.82
2018-12-06T09:40:15.986Z,19.05
2018-12-06T09:41:20.060Z,19.92
2018-12-06T09:42:24.291Z,19.32
2018-12-06T09:43:28.295Z,19.77
2018-12-06T09:44:32.471Z,20.35
2018-12-06T09:45:36.788Z,21.17
2018-12-06T09:46:40.809Z,22.58
2018-12-06T09:47:44.901Z,20.77
2018-12-06T09:48:48.934Z,22.37
2018-12-06T09:49:52.990Z,22.27
2018-12-06T09:50:57.307Z,24.00
2018-12-06T09:52:04.150Z,21.90
2018-12-06T09:53:08.187Z,22.10
2018-12-06T09:54:12.205Z,22.25
2018-12-06T09:55:16.307Z,21.65
2018-12-06T09:56:20.492Z,23.42
2018-12-06T09:57:24.694Z,21.77
2018-12-06T09:58:28.862Z,21.70
2018-12-06T09:59:33.005Z,21.15
2018-12-06T10:00:37.024Z,20.57
2018-12-06T10:01:41.260Z,20.43
2018-12-06T10:02:45.354Z,18.05
2018-12-06T10:03:49.378Z,21.37
2018-12-06T10:04:53.439Z,20.80
2018-12-06T10:05:57.576Z,20.68
2018-12-06T10:07:01.758Z,20.52
2018-12-06T10:08:06.169Z,20.95
2018-12-06T10:09:10.816Z,18.23
2018-12-06T10:10:15.139Z,20.05
2018-12-06T10:11:19.459Z,20.02
2018-12-06T10:12:23.603Z,20.82
2018-12-06T10:13:27.858Z,20.00
2018-12-06T10:14:31.973Z,18.52
2018-12-06T10:15:36.093Z,19.05
2018-12-06T10:16:40.264Z,19.62
2018-12-06T10:17:44.491Z,17.50
2018-12-06T10:18:48.493Z,19.45
2018-12-06T10:19:52.579Z,19.90
2018-12-06T10:20:56.574Z,18.00
2018-12-06T10:22:00.983Z,17.80
2018-12-06T10:23:05.102Z,16.12
2018-12-06T10:24:09.143Z,17.10
2018-12-06T10:25:13.203Z,16.77
2018-12-06T10:26:17.227Z,17.87
2018-12-06T10:27:21.250Z,16.80
2018-12-06T10:28:25.398Z,16.48
2018-12-06T10:29:29.740Z,16.23
2018-12-06T10:30:34.059Z,17.15
2018-12-06T10:31:38.116Z,20.40
2018-12-06T10:32:42.129Z,18.32
2018-12-06T10:33:46.244Z,17.32
2018-12-06T10:34:53.369Z,16.52
2018-12-06T10:35:56.394Z,17.75
2018-12-06T10:37:00.465Z,17.57
2018-12-06T10:38:04.462Z,15.75
2018-12-06T10:39:08.990Z,19.90
2018-12-06T10:40:13.168Z,16.52
2018-12-06T10:41:17.234Z,15.88
2018-12-06T10:42:21.500Z,18.27
2018-12-06T10:43:25.620Z,17.20
2018-12-06T10:44:31.189Z,16.30
2018-12-06T10:45:35.441Z,15.60
2018-12-06T10:46:39.635Z,16.20
2018-12-06T10:47:43.695Z,15.85
2018-12-06T10:48:47.747Z,14.95
2018-12-06T10:49:51.826Z,17.40
2018-12-06T10:51:07.583Z,16.48
2018-12-06T10:52:12.022Z,14.93
2018-12-06T10:53:16.125Z,13.28
2018-12-06T10:54:20.813Z,16.60
2018-12-06T10:55:24.994Z,15.10
2018-12-06T10:56:29.099Z,15.08
2018-12-06T10:57:33.111Z,15.38
2018-12-06T10:58:37.693Z,17.62
2018-12-06T10:59:41.662Z,15.68
2018-12-06T11:00:57.151Z,15.40
2018-12-06T11:02:02.495Z,14.05
2018-12-06T11:03:14.022Z,16.55
2018-12-06T11:04:18.284Z,15.15
2018-12-06T11:05:22.389Z,15.83
2018-12-06T11:06:26.691Z,15.55
2018-12-06T11:07:30.823Z,15.13
2018-12-06T11:08:34.797Z,14.03
2018-12-06T11:09:38.795Z,13.75
2018-12-06T11:10:42.931Z,15.08
2018-12-06T11:11:47.041Z,14.85
2018-12-06T11:12:51.050Z,14.87
2018-12-06T11:13:55.187Z,15.00
2018-12-06T11:14:59.274Z,14.90
2018-12-06T11:16:03.613Z,14.90
2018-12-06T11:17:07.719Z,13.20
2018-12-06T11:18:11.749Z,13.40
2018-12-06T11:19:15.759Z,14.98
2018-12-06T11:20:19.819Z,13.85
2018-12-06T11:21:24.015Z,15.13
2018-12-06T11:22:28.034Z,14.33
2018-12-06T11:23:32.046Z,14.78
2018-12-06T11:24:36.203Z,15.80
2018-12-06T11:25:40.205Z,17.00
2018-12-06T11:26:44.246Z,14.25
2018-12-06T11:27:48.370Z,14.33
2018-12-06T11:28:52.446Z,15.18
2018-12-06T11:29:56.738Z,15.38
2018-12-06T11:31:00.876Z,14.47
2018-12-06T11:32:05.198Z,14.80
2018-12-06T11:33:09.281Z,12.10
2018-12-06T11:34:13.454Z,13.45
2018-12-06T11:35:17.504Z,13.60
2018-12-06T11:36:22.583Z,12.75
2018-12-06T11:37:26.723Z,12.85
2018-12-06T11:38:31.414Z,12.58
2018-12-06T11:39:36.070Z,13.83
2018-12-06T11:40:40.154Z,13.55
2018-12-06T11:41:44.262Z,13.10
2018-12-06T11:42:48.311Z,13.30
2018-12-06T11:43:52.526Z,13.68
2018-12-06T11:44:56.682Z,12.05
2018-12-06T11:46:00.704Z,12.85
2018-12-06T11:47:04.887Z,12.78
2018-12-06T11:48:08.952Z,12.68
2018-12-06T11:49:13.124Z,12.80
2018-12-06T11:50:17.354Z,13.15
2018-12-06T11:51:21.460Z,13.60
2018-12-06T11:52:25.487Z,12.70
2018-12-06T11:53:29.536Z,13.43
2018-12-06T11:54:33.614Z,12.43
2018-12-06T11:55:38.138Z,11.65
2018-12-06T11:56:42.689Z,12.58
2018-12-06T11:57:46.799Z,13.28
2018-12-06T11:58:51.518Z,12.05
2018-12-06T11:59:56.190Z,12.95
2018-12-06T12:01:01.142Z,13.25
2018-12-06T12:02:09.934Z,12.28
2018-12-06T12:03:11.327Z,13.15
2018-12-06T12:04:15.519Z,12.53
2018-12-06T12:05:20.118Z,12.95
2018-12-06T12:06:25.095Z,12.93
2018-12-06T12:07:29.550Z,13.15
2018-12-06T12:08:33.755Z,12.15
2018-12-06T12:09:38.182Z,13.22
2018-12-06T12:10:42.471Z,11.83
2018-12-06T12:11:46.538Z,11.12
2018-12-06T12:12:50.783Z,12.95
2018-12-06T12:13:54.847Z,14.13
2018-12-06T12:14:59.000Z,11.43
2018-12-06T12:16:03.148Z,12.60
2018-12-06T12:17:07.262Z,12.18
2018-12-06T12:18:11.513Z,12.73
2018-12-06T12:19:15.653Z,11.20
2018-12-06T12:20:19.809Z,9.60
2018-12-06T12:21:24.031Z,10.90
2018-12-06T12:22:28.182Z,10.20
2018-12-06T12:23:32.203Z,10.65
2018-12-06T12:24:36.326Z,9.73
2018-12-06T12:25:40.467Z,10.25
2018-12-06T12:26:44.500Z,9.83
2018-12-06T12:27:48.595Z,9.90
2018-12-06T12:28:52.717Z,10.15
2018-12-06T12:29:56.870Z,11.25
2018-12-06T12:31:00.883Z,10.00
2018-12-06T12:32:05.142Z,10.15
2018-12-06T12:33:09.174Z,8.40
2018-12-06T12:34:13.247Z,9.13
2018-12-06T12:35:18.826Z,9.53
2018-12-06T12:36:23.335Z,9.00
2018-12-06T12:37:27.468Z,8.48
2018-12-06T12:38:31.862Z,7.05
2018-12-06T12:39:35.918Z,8.50
2018-12-06T12:40:40.360Z,8.23
2018-12-06T12:41:44.574Z,10.35
2018-12-06T12:42:48.632Z,8.88
2018-12-06T12:43:52.813Z,9.33
2018-12-06T12:44:56.863Z,8.73
2018-12-06T12:46:00.899Z,8.70
2018-12-06T12:47:05.036Z,9.45
2018-12-06T12:48:09.191Z,9.33
2018-12-06T12:49:13.195Z,11.90
2018-12-06T12:50:17.320Z,14.50
2018-12-06T12:51:22.717Z,14.63
2018-12-06T12:52:26.748Z,8.83
2018-12-06T12:53:30.771Z,10.40
2018-12-06T12:54:34.867Z,12.15
2018-12-06T12:55:39.120Z,9.28
2018-12-06T12:56:43.160Z,10.10
2018-12-06T12:57:47.457Z,11.45
2018-12-06T12:58:51.531Z,10.32
2018-12-06T12:59:55.571Z,8.85
2018-12-06T13:00:59.698Z,9.93
2018-12-06T13:02:03.780Z,9.30
2018-12-06T13:03:08.079Z,9.93
2018-12-06T13:04:12.174Z,11.08
2018-12-06T13:05:16.281Z,9.20
2018-12-06T13:06:20.368Z,9.98
2018-12-06T13:07:24.426Z,9.53
2018-12-06T13:08:28.578Z,9.43
2018-12-06T13:09:32.713Z,9.80
2018-12-06T13:10:36.883Z,9.80
2018-12-06T13:11:40.922Z,9.03
2018-12-06T13:12:45.081Z,8.85
2018-12-06T13:13:49.226Z,12.13
2018-12-06T13:14:53.434Z,10.65
2018-12-06T13:15:57.450Z,11.63
2018-12-06T13:17:01.751Z,10.95
2018-12-06T13:18:05.847Z,10.75
2018-12-06T13:19:09.918Z,10.40
2018-12-06T13:20:14.170Z,10.80
2018-12-06T13:21:18.391Z,11.53
2018-12-06T13:22:22.640Z,11.68
2018-12-06T13:23:26.680Z,11.65
2018-12-06T13:24:31.104Z,12.93
2018-12-06T13:25:35.207Z,11.88
2018-12-06T13:26:39.266Z,10.70
2018-12-06T13:27:43.299Z,10.30
2018-12-06T13:28:47.543Z,11.20
2018-12-06T13:29:51.773Z,10.88
2018-12-06T13:30:56.058Z,12.37
2018-12-06T13:32:00.233Z,12.68
2018-12-06T13:33:04.463Z,9.78
2018-12-06T13:34:08.530Z,11.00
2018-12-06T13:35:19.169Z,11.45
2018-12-06T13:36:23.316Z,10.43
2018-12-06T13:37:27.500Z,9.93
2018-12-06T13:38:31.623Z,10.80
2018-12-06T13:39:35.685Z,10.50
2018-12-06T13:40:39.827Z,9.80
2018-12-06T13:41:43.942Z,10.08
2018-12-06T13:42:48.223Z,10.10
2018-12-06T13:43:52.532Z,10.75
2018-12-06T13:44:56.742Z,10.10
2018-12-06T13:46:00.946Z,9.85
2018-12-06T13:47:05.228Z,9.75
2018-12-06T13:48:09.449Z,9.95
2018-12-06T13:49:13.454Z,9.58
2018-12-06T13:50:17.639Z,9.55
2018-12-06T13:51:21.843Z,9.45